Impacts METAR Board
IDs:

KEWR - Newark Intl, NJ, US

Updated at: 2200 UTC 01 Feb 2023
Potential Impact None Slight Moderate High
Time 01/10Z 01/11Z 01/12Z 01/13Z 01/14Z 01/15Z 01/16Z 01/17Z 01/18Z 01/19Z 01/20Z 01/21Z 01/22Z
Temp27 27 28 28 29 31 33 36 38 39 40 40 38
Dewpt19 21 22 21 20 20 19 18 16 11 11 10 11
Altim30.23 30.23 30.26 30.27 30.28 30.29 30.29 30.28 30.25 30.22 30.21 30.22 30.23
VIS6 9 10 10 10 10 10 10 10 10 10 10 10
CIG35 65 16 17 44 19 -- -- -- -- -- -- --
CoverOVCOVCOVCBKNBKNBKNSCTFEWFEWFEWFEWFEWFEW
FltCatVFRVFRMVFRMVFRVFRMVFRVFRVFRVFRVFRVFRVFRVFR
WX-SN-SN----------------------
WDir3601010103603603402600300280320280
WSpd12 8 9 9 8 6 4 7 0 8 10 11 7
WGst-- -- -- -- -- -- -- -- -- -- 16 -- --
Raw hourly METARs
KEWR 010951Z 36012KT 6SM -SN BKN035 BKN045 OVC065 M03/M07 A3023 RMK AO2 SLP237 P0001 T10281072
KEWR 011051Z 01008KT 9SM -SN FEW033 BKN065 OVC100 M03/M06 A3023 RMK AO2 SLP236 P0000 T10281061
KEWR 011151Z 01009KT 10SM BKN016 BKN050 OVC100 M02/M06 A3026 RMK AO2 SNE07 SLP247 P0001 60002 70005 T10221056 11006 21028 53011
KEWR 011251Z 01009KT 10SM BKN017 BKN045 M02/M06 A3027 RMK AO2 SLP250 T10221061
KEWR 011351Z 36008KT 10SM SCT015 BKN044 M02/M07 A3028 RMK AO2 SLP252 T10171067
KEWR 011451Z 36006KT 10SM BKN019 BKN046 M01/M07 A3029 RMK AO2 SLP257 T10061067 53010
KEWR 011551Z 34004KT 10SM FEW020 SCT048 01/M07 A3029 RMK AO2 SLP257 T00061072
KEWR 011651Z 26007KT 10SM FEW025 FEW045 FEW250 02/M08 A3028 RMK AO2 SLP252 T00221078
KEWR 011751Z 00000KT 10SM FEW048 FEW250 03/M09 A3025 RMK AO2 SLP242 T00331089 10033 21022 58015
KEWR 011857Z 30008KT 250V340 10SM FEW046 FEW250 04/M12 A3022 RMK AO2 T00391117
KEWR 011951Z 28010G16KT 10SM FEW046 FEW250 04/M12 A3021 RMK AO2 SLP229 T00441117
KEWR 012051Z 32011KT 10SM FEW250 04/M12 A3022 RMK AO2 SLP233 T00441122 55009
KEWR 012151Z 28007KT 10SM FEW250 03/M12 A3023 RMK AO2 SLP236 T00331117



Page loaded:  22:47 UTC  |   02:47 PM Pacific  |   03:47 PM Mountain  |   04:47 PM Central  |   05:47 PM Eastern

 

ADVISORIES

FORECASTS

FORECASTS

OBSERVATIONS

USER TOOLS

ABOUT US